Iriana — WDG2606 — position and weather

sailwx.info

Track history (hours):
 
Tides and Currents Weather Stations Pressure Air Temp Water Temp Dewpoint Dewpoint Depression Visibility Wind Speed Wind Dir Waves Ship Positions

Iriana

Owner: Bruce, Roger M, Green Cove Springs, FL. More information available from US FCC via Universal Licensing System and Coast Guard Vessel Documentation Center.

Last reported at 2016-May-25 19:19 UTC. Time now 2016-May-26 18:30 UTC.
Position N 18°18' W 064°52'.

Length 16 m; draft 2 m.

Type: Pleasure craft. MMSI: 367517330.

Date/timePositionNaut miles runAvg speedWind from/ knotsBaromVisibWave heightAir tempDewpointWater temp
2016-May-25 19:19N 18°18' W 064°52'5 6.0
2016-May-25 18:33N 18°20' W 064°48'1 0.8
2016-May-25 17:33N 18°21' W 064°48'0 0.0
2016-May-25 16:33N 18°21' W 064°47'0 0.0
2016-May-25 15:33N 18°21' W 064°47'0 0.0
2016-May-25 14:33N 18°21' W 064°47'0 0.0
2016-May-25 13:33N 18°21' W 064°47'0 0.0
2016-May-25 12:33N 18°21' W 064°47'0 0.0
2016-May-25 11:33N 18°21' W 064°47'0 0.0
2016-May-25 10:33N 18°21' W 064°47'0 0.0
2016-May-25 09:33N 18°21' W 064°47'0 0.0
2016-May-25 08:33N 18°21' W 064°47'0 0.0
2016-May-25 07:33N 18°21' W 064°47'0 0.0
2016-May-25 06:33N 18°21' W 064°47'0 0.0
2016-May-25 05:33N 18°21' W 064°47'0 0.0
2016-May-25 04:33N 18°21' W 064°47'0 0.0
2016-May-25 03:33N 18°21' W 064°47'0 0.0
2016-May-25 02:33N 18°21' W 064°47'0 0.0
2016-May-25 01:33N 18°21' W 064°47'0 0.0
2016-May-25 00:33N 18°21' W 064°47'0 0.0
2016-May-24 23:33N 18°21' W 064°47'0 0.0
2016-May-24 22:33N 18°21' W 064°47'0 0.0
2016-May-24 21:33N 18°21' W 064°47'0 0.0
2016-May-24 20:33N 18°21' W 064°47'0 0.0
2016-May-24 19:33N 18°21' W 064°47'0 0.1
2016-May-24 18:33N 18°21' W 064°48'5 5.1
2016-May-24 17:33N 18°23' W 064°43'1 0.6
2016-May-24 16:33N 18°23' W 064°42'0 0.0
2016-May-24 15:33N 18°23' W 064°42'  
2016-May-19 12:14N 18°26' W 064°43'2 2.8
2016-May-19 11:33N 18°26' W 064°45'0 0.0
2016-May-19 10:33N 18°26' W 064°45'0 0.0
2016-May-19 09:33N 18°26' W 064°45'0 0.0
2016-May-19 08:33N 18°26' W 064°45'0 0.0
2016-May-19 07:33N 18°26' W 064°45'0 0.0
2016-May-19 06:33N 18°26' W 064°45'0 0.0
2016-May-19 05:33N 18°26' W 064°45'0 0.0
2016-May-19 04:33N 18°26' W 064°45'0 0.0
2016-May-19 03:33N 18°26' W 064°45'0 0.0
2016-May-19 02:33N 18°26' W 064°45'0 0.0
2016-May-19 01:33N 18°26' W 064°45'0 0.0
2016-May-19 00:33N 18°26' W 064°45'0 0.0
2016-May-18 23:33N 18°26' W 064°45'0 0.0
2016-May-18 22:33N 18°26' W 064°45'0 0.0
2016-May-18 21:33N 18°26' W 064°45'0 0.0
2016-May-18 20:33N 18°26' W 064°45'0 0.0
2016-May-18 19:33N 18°26' W 064°45'0 0.0
2016-May-18 18:33N 18°26' W 064°45'0 0.0
2016-May-18 17:32N 18°26' W 064°45'0 0.0
2016-May-18 16:33N 18°26' W 064°45'0 0.0
2016-May-18 15:33N 18°26' W 064°45'5 5.1
2016-May-18 14:33N 18°22' W 064°47'1 1.3
2016-May-18 13:33N 18°21' W 064°48'0 0.0
2016-May-18 12:33N 18°21' W 064°48'0 0.0
2016-May-18 11:33N 18°21' W 064°48'0 0.0
2016-May-18 10:33N 18°21' W 064°48'0 0.0
2016-May-18 09:33N 18°21' W 064°48'0 0.0
2016-May-18 08:33N 18°21' W 064°48'0 0.0
2016-May-18 07:33N 18°21' W 064°48'0 0.0
2016-May-18 06:33N 18°21' W 064°48'0 0.0
2016-May-18 05:33N 18°21' W 064°48'0 0.0
2016-May-18 04:33N 18°21' W 064°48'0 0.0
2016-May-18 03:33N 18°21' W 064°48'0 0.0
2016-May-18 02:33N 18°21' W 064°48'0 0.0
2016-May-18 01:33N 18°21' W 064°48'0 0.0
2016-May-18 00:33N 18°21' W 064°48'0 0.0
2016-May-17 23:33N 18°21' W 064°48'0 0.0
2016-May-17 22:33N 18°21' W 064°48'0 0.0
2016-May-17 21:33N 18°21' W 064°48'0 0.0
2016-May-17 20:33N 18°21' W 064°48'0 0.0
2016-May-17 19:33N 18°21' W 064°48'0 0.0
2016-May-17 18:33N 18°21' W 064°48'0 0.0
2016-May-17 17:33N 18°21' W 064°48'0 0.0
2016-May-17 16:33N 18°21' W 064°48'0 0.0
2016-May-17 15:33N 18°21' W 064°48'0 0.0
2016-May-17 14:33N 18°21' W 064°48'0 0.0
2016-May-17 13:33N 18°21' W 064°48'0 0.0
2016-May-17 12:33N 18°21' W 064°48'0 0.0
2016-May-17 11:33N 18°21' W 064°48'0 0.0
2016-May-17 10:33N 18°21' W 064°48'0 0.0
2016-May-17 09:33N 18°21' W 064°48'0 0.0
2016-May-17 08:33N 18°21' W 064°48'0 0.0
2016-May-17 07:33N 18°21' W 064°48'0 0.0
2016-May-17 06:33N 18°21' W 064°48'0 0.0
2016-May-17 05:33N 18°21' W 064°48'0 0.0
2016-May-17 04:33N 18°21' W 064°48'0 0.0
2016-May-17 03:33N 18°21' W 064°48'0 0.0
2016-May-17 02:33N 18°21' W 064°48'0 0.0
2016-May-17 01:33N 18°21' W 064°48'0 0.0
2016-May-17 00:33N 18°21' W 064°48'0 0.0
2016-May-16 23:33N 18°21' W 064°48'0 0.0
2016-May-16 22:33N 18°21' W 064°48'0 0.0
2016-May-16 21:33N 18°21' W 064°48'0 0.0
2016-May-16 20:33N 18°21' W 064°48'0 0.0
2016-May-16 19:33N 18°21' W 064°48'0 0.0
2016-May-16 18:33N 18°21' W 064°48'0 0.0
2016-May-16 17:33N 18°21' W 064°48'0 0.0
2016-May-16 16:33N 18°21' W 064°48'0 0.0
2016-May-16 15:33N 18°21' W 064°48'0 0.0
2016-May-16 14:33N 18°21' W 064°48'0 0.0
2016-May-16 13:33N 18°21' W 064°48'0 0.0
2016-May-16 12:33N 18°21' W 064°48'0 0.0
2016-May-16 11:33N 18°21' W 064°48'0 0.0
2016-May-16 10:33N 18°21' W 064°48'0 0.0
2016-May-16 09:33N 18°21' W 064°48'0 0.0
2016-May-16 08:33N 18°21' W 064°48'0 0.0
2016-May-16 07:33N 18°21' W 064°48'0 0.0
2016-May-16 06:33N 18°21' W 064°48'0 0.0
2016-May-16 05:33N 18°21' W 064°48'0 0.0
2016-May-16 04:33N 18°21' W 064°48'0 0.0
2016-May-16 03:33N 18°21' W 064°48'0 0.0
2016-May-16 02:33N 18°21' W 064°48'0 0.0
2016-May-16 01:33N 18°21' W 064°48'0 0.0
2016-May-16 00:33N 18°21' W 064°48'0 0.0
2016-May-15 23:33N 18°21' W 064°48'0 0.0
2016-May-15 22:33N 18°21' W 064°48'0 0.0
2016-May-15 21:33N 18°21' W 064°48'0 0.0
2016-May-15 20:33N 18°21' W 064°48'0 0.0
2016-May-15 19:33N 18°21' W 064°48'  
Track history (hours):
 
Tides and Currents Weather Stations Pressure Air Temp Water Temp Dewpoint Dewpoint Depression Visibility Wind Speed Wind Dir Waves Ship Positions

Iriana

Owner: Bruce, Roger M, Green Cove Springs, FL. More information available from US FCC via Universal Licensing System and Coast Guard Vessel Documentation Center.

Last reported at 2016-May-25 19:19 UTC. Time now 2016-May-26 18:30 UTC.
Position N 18°18' W 064°52'.

Length 16 m; draft 2 m.

Type: Pleasure craft. MMSI: 367517330.

Date/timePositionNaut miles runAvg speedWind from/ knotsBaromVisibWave heightAir tempDewpointWater temp
2016-May-25 19:19N 18°18' W 064°52'5 6.0
2016-May-25 18:33N 18°20' W 064°48'1 0.8
2016-May-25 17:33N 18°21' W 064°48'0 0.0
2016-May-25 16:33N 18°21' W 064°47'0 0.0
2016-May-25 15:33N 18°21' W 064°47'0 0.0
2016-May-25 14:33N 18°21' W 064°47'0 0.0
2016-May-25 13:33N 18°21' W 064°47'0 0.0
2016-May-25 12:33N 18°21' W 064°47'0 0.0
2016-May-25 11:33N 18°21' W 064°47'0 0.0
2016-May-25 10:33N 18°21' W 064°47'0 0.0
2016-May-25 09:33N 18°21' W 064°47'0 0.0
2016-May-25 08:33N 18°21' W 064°47'0 0.0
2016-May-25 07:33N 18°21' W 064°47'0 0.0
2016-May-25 06:33N 18°21' W 064°47'0 0.0
2016-May-25 05:33N 18°21' W 064°47'0 0.0
2016-May-25 04:33N 18°21' W 064°47'0 0.0
2016-May-25 03:33N 18°21' W 064°47'0 0.0
2016-May-25 02:33N 18°21' W 064°47'0 0.0
2016-May-25 01:33N 18°21' W 064°47'0 0.0
2016-May-25 00:33N 18°21' W 064°47'0 0.0
2016-May-24 23:33N 18°21' W 064°47'0 0.0
2016-May-24 22:33N 18°21' W 064°47'0 0.0
2016-May-24 21:33N 18°21' W 064°47'0 0.0
2016-May-24 20:33N 18°21' W 064°47'0 0.0
2016-May-24 19:33N 18°21' W 064°47'0 0.1
2016-May-24 18:33N 18°21' W 064°48'5 5.1
2016-May-24 17:33N 18°23' W 064°43'1 0.6
2016-May-24 16:33N 18°23' W 064°42'0 0.0
2016-May-24 15:33N 18°23' W 064°42'  
2016-May-19 12:14N 18°26' W 064°43'2 2.8
2016-May-19 11:33N 18°26' W 064°45'0 0.0
2016-May-19 10:33N 18°26' W 064°45'0 0.0
2016-May-19 09:33N 18°26' W 064°45'0 0.0
2016-May-19 08:33N 18°26' W 064°45'0 0.0
2016-May-19 07:33N 18°26' W 064°45'0 0.0
2016-May-19 06:33N 18°26' W 064°45'0 0.0
2016-May-19 05:33N 18°26' W 064°45'0 0.0
2016-May-19 04:33N 18°26' W 064°45'0 0.0
2016-May-19 03:33N 18°26' W 064°45'0 0.0
2016-May-19 02:33N 18°26' W 064°45'0 0.0
2016-May-19 01:33N 18°26' W 064°45'0 0.0
2016-May-19 00:33N 18°26' W 064°45'0 0.0
2016-May-18 23:33N 18°26' W 064°45'0 0.0
2016-May-18 22:33N 18°26' W 064°45'0 0.0
2016-May-18 21:33N 18°26' W 064°45'0 0.0
2016-May-18 20:33N 18°26' W 064°45'0 0.0
2016-May-18 19:33N 18°26' W 064°45'0 0.0
2016-May-18 18:33N 18°26' W 064°45'0 0.0
2016-May-18 17:32N 18°26' W 064°45'0 0.0
2016-May-18 16:33N 18°26' W 064°45'0 0.0
2016-May-18 15:33N 18°26' W 064°45'5 5.1
2016-May-18 14:33N 18°22' W 064°47'1 1.3
2016-May-18 13:33N 18°21' W 064°48'0 0.0
2016-May-18 12:33N 18°21' W 064°48'0 0.0
2016-May-18 11:33N 18°21' W 064°48'0 0.0
2016-May-18 10:33N 18°21' W 064°48'0 0.0
2016-May-18 09:33N 18°21' W 064°48'0 0.0
2016-May-18 08:33N 18°21' W 064°48'0 0.0
2016-May-18 07:33N 18°21' W 064°48'0 0.0
2016-May-18 06:33N 18°21' W 064°48'0 0.0
2016-May-18 05:33N 18°21' W 064°48'0 0.0
2016-May-18 04:33N 18°21' W 064°48'0 0.0
2016-May-18 03:33N 18°21' W 064°48'0 0.0
2016-May-18 02:33N 18°21' W 064°48'0 0.0
2016-May-18 01:33N 18°21' W 064°48'0 0.0
2016-May-18 00:33N 18°21' W 064°48'0 0.0
2016-May-17 23:33N 18°21' W 064°48'0 0.0
2016-May-17 22:33N 18°21' W 064°48'0 0.0
2016-May-17 21:33N 18°21' W 064°48'0 0.0
2016-May-17 20:33N 18°21' W 064°48'0 0.0
2016-May-17 19:33N 18°21' W 064°48'0 0.0
2016-May-17 18:33N 18°21' W 064°48'0 0.0
2016-May-17 17:33N 18°21' W 064°48'0 0.0
2016-May-17 16:33N 18°21' W 064°48'0 0.0
2016-May-17 15:33N 18°21' W 064°48'0 0.0
2016-May-17 14:33N 18°21' W 064°48'0 0.0
2016-May-17 13:33N 18°21' W 064°48'0 0.0
2016-May-17 12:33N 18°21' W 064°48'0 0.0
2016-May-17 11:33N 18°21' W 064°48'0 0.0
2016-May-17 10:33N 18°21' W 064°48'0 0.0
2016-May-17 09:33N 18°21' W 064°48'0 0.0
2016-May-17 08:33N 18°21' W 064°48'0 0.0
2016-May-17 07:33N 18°21' W 064°48'0 0.0
2016-May-17 06:33N 18°21' W 064°48'0 0.0
2016-May-17 05:33N 18°21' W 064°48'0 0.0
2016-May-17 04:33N 18°21' W 064°48'0 0.0
2016-May-17 03:33N 18°21' W 064°48'0 0.0
2016-May-17 02:33N 18°21' W 064°48'0 0.0
2016-May-17 01:33N 18°21' W 064°48'0 0.0
2016-May-17 00:33N 18°21' W 064°48'0 0.0
2016-May-16 23:33N 18°21' W 064°48'0 0.0
2016-May-16 22:33N 18°21' W 064°48'0 0.0
2016-May-16 21:33N 18°21' W 064°48'0 0.0
2016-May-16 20:33N 18°21' W 064°48'0 0.0
2016-May-16 19:33N 18°21' W 064°48'0 0.0
2016-May-16 18:33N 18°21' W 064°48'0 0.0
2016-May-16 17:33N 18°21' W 064°48'0 0.0
2016-May-16 16:33N 18°21' W 064°48'0 0.0
2016-May-16 15:33N 18°21' W 064°48'0 0.0
2016-May-16 14:33N 18°21' W 064°48'0 0.0
2016-May-16 13:33N 18°21' W 064°48'0 0.0
2016-May-16 12:33N 18°21' W 064°48'0 0.0
2016-May-16 11:33N 18°21' W 064°48'0 0.0
2016-May-16 10:33N 18°21' W 064°48'0 0.0
2016-May-16 09:33N 18°21' W 064°48'0 0.0
2016-May-16 08:33N 18°21' W 064°48'0 0.0
2016-May-16 07:33N 18°21' W 064°48'0 0.0
2016-May-16 06:33N 18°21' W 064°48'0 0.0
2016-May-16 05:33N 18°21' W 064°48'0 0.0
2016-May-16 04:33N 18°21' W 064°48'0 0.0
2016-May-16 03:33N 18°21' W 064°48'0 0.0
2016-May-16 02:33N 18°21' W 064°48'0 0.0
2016-May-16 01:33N 18°21' W 064°48'0 0.0
2016-May-16 00:33N 18°21' W 064°48'0 0.0
2016-May-15 23:33N 18°21' W 064°48'0 0.0
2016-May-15 22:33N 18°21' W 064°48'0 0.0
2016-May-15 21:33N 18°21' W 064°48'0 0.0
2016-May-15 20:33N 18°21' W 064°48'0 0.0
2016-May-15 19:33N 18°21' W 064°48'  

Dump ship's entire track history